createdAt,value
2019-04-11T00:00:09.047Z,96876.99
2019-04-11T00:01:08.047Z,96882.45
2019-04-11T00:01:58.814Z,96872.65
2019-04-11T00:02:49.815Z,96887.44
2019-04-11T00:03:41.750Z,96880.62
2019-04-11T00:04:32.310Z,96887.19
2019-04-11T00:05:22.984Z,96886.94
2019-04-11T00:06:12.709Z,96879.31
2019-04-11T00:07:03.747Z,96892.95
2019-04-11T00:07:54.307Z,96891.59
2019-04-11T00:08:44.662Z,96883.96
2019-04-11T00:09:35.215Z,96893.27
2019-04-11T00:10:27.662Z,96885.08
2019-04-11T00:11:17.984Z,96887.59
2019-04-11T00:12:10.419Z,96890.31
2019-04-11T00:13:01.247Z,96888.15
2019-04-11T00:13:51.540Z,96887.34
2019-04-11T00:14:42.166Z,96879.72
2019-04-11T00:15:34.833Z,96891.19
2019-04-11T00:16:25.453Z,96880.02
2019-04-11T00:17:15.505Z,96888.20
2019-04-11T00:18:06.168Z,96887.98
2019-04-11T00:18:56.944Z,96887.98
2019-04-11T00:19:47.484Z,96891.27
2019-04-11T00:20:37.488Z,96878.19
2019-04-11T00:21:28.765Z,96880.67
2019-04-11T00:22:19.463Z,96883.40
2019-04-11T00:23:08.760Z,96887.23
2019-04-11T00:23:59.156Z,96877.44
2019-04-11T00:24:51.269Z,96884.27
2019-04-11T00:25:44.102Z,96884.84
2019-04-11T00:26:33.839Z,96884.05
2019-04-11T00:27:28.859Z,96885.41
2019-04-11T00:28:25.799Z,96881.88
2019-04-11T00:29:16.405Z,96889.25
2019-04-11T00:30:08.092Z,96882.73
2019-04-11T00:30:58.808Z,96889.56
2019-04-11T00:31:49.577Z,96877.84
2019-04-11T00:32:39.312Z,96885.00
2019-04-11T00:33:30.023Z,96886.11
2019-04-11T00:34:20.648Z,96885.55
2019-04-11T00:35:11.230Z,96892.13
2019-04-11T00:36:04.280Z,96890.52
2019-04-11T00:36:58.879Z,96894.05
2019-04-11T00:37:49.606Z,96897.08
2019-04-11T00:38:40.316Z,96896.30
2019-04-11T00:39:30.615Z,96899.59
2019-04-11T00:40:21.551Z,96891.72
2019-04-11T00:41:12.071Z,96894.75
2019-04-11T00:42:04.109Z,96894.75
2019-04-11T00:42:54.989Z,96898.63
2019-04-11T00:43:46.907Z,96890.44
2019-04-11T00:44:37.645Z,96899.17
2019-04-11T00:45:28.744Z,96896.76
2019-04-11T00:46:18.997Z,96901.16
2019-04-11T00:47:11.004Z,96906.05
2019-04-11T00:48:01.682Z,96903.88
2019-04-11T00:48:52.894Z,96898.20
2019-04-11T00:49:46.445Z,96898.52
2019-04-11T00:50:37.257Z,96898.52
2019-04-11T00:51:27.745Z,96896.90
2019-04-11T00:52:18.155Z,96903.41
2019-04-11T00:53:09.777Z,96900.99
2019-04-11T00:54:00.599Z,96896.65
2019-04-11T00:54:51.175Z,96902.66
2019-04-11T00:55:41.876Z,96900.52
2019-04-11T00:56:31.151Z,96904.02
2019-04-11T00:57:23.057Z,96904.61
2019-04-11T00:58:13.752Z,96907.89
2019-04-11T00:59:03.430Z,96911.18
2019-04-11T00:59:56.426Z,96905.48
2019-04-11T01:00:47.146Z,96901.38
2019-04-11T01:01:36.952Z,96906.59
2019-04-11T01:02:27.824Z,96912.84
2019-04-11T01:03:18.664Z,96910.12
2019-04-11T01:04:09.653Z,96908.51
2019-04-11T01:04:59.461Z,96910.42
2019-04-11T01:05:50.016Z,96903.61
2019-04-11T01:06:41.090Z,96906.92
2019-04-11T01:07:33.167Z,96907.70
2019-04-11T01:08:24.203Z,96914.30
2019-04-11T01:09:16.136Z,96907.23
2019-04-11T01:10:07.795Z,96908.59
2019-04-11T01:11:00.477Z,96914.05
2019-04-11T01:11:52.206Z,96913.55
2019-04-11T01:12:44.679Z,96914.91
2019-04-11T01:13:45.596Z,96921.72
2019-04-11T01:14:25.830Z,96919.33
2019-04-11T01:15:19.545Z,96909.20
2019-04-11T01:16:18.626Z,96910.91
2019-04-11T01:17:10.799Z,96912.27
2019-04-11T01:18:01.478Z,96917.47
2019-04-11T01:18:52.046Z,96914.74
2019-04-11T01:19:42.982Z,96922.11
2019-04-11T01:20:33.422Z,96914.48
2019-04-11T01:21:24.277Z,96910.16
2019-04-11T01:22:14.070Z,96923.23
2019-04-11T01:23:06.841Z,96916.19
2019-04-11T01:23:57.567Z,96921.64
2019-04-11T01:24:48.163Z,96920.03
2019-04-11T01:25:39.422Z,96926.59
2019-04-11T01:26:30.036Z,96921.95
2019-04-11T01:27:21.625Z,96912.96
2019-04-11T01:28:12.211Z,96923.06
2019-04-11T01:29:02.913Z,96927.70
2019-04-11T01:29:54.424Z,96923.36
2019-04-11T01:30:52.372Z,96924.73
2019-04-11T01:31:44.221Z,96926.42
2019-04-11T01:32:34.894Z,96924.25
2019-04-11T01:33:25.392Z,96932.98
2019-04-11T01:34:16.252Z,96926.48
2019-04-11T01:35:06.894Z,96925.11
2019-04-11T01:35:57.518Z,96927.63
2019-04-11T01:36:47.583Z,96933.62
2019-04-11T01:37:38.039Z,96927.92
2019-04-11T01:38:28.814Z,96925.75
2019-04-11T01:39:38.015Z,96926.05
2019-04-11T01:40:29.892Z,96934.23
2019-04-11T01:41:20.990Z,96934.79
2019-04-11T01:42:11.264Z,96935.94
2019-04-11T01:43:01.910Z,96933.81
2019-04-11T01:43:56.273Z,96929.17
2019-04-11T01:44:43.027Z,96929.73
2019-04-11T01:45:33.705Z,96939.27
2019-04-11T01:46:23.027Z,96938.80
2019-04-11T01:47:16.559Z,96940.41
2019-04-11T01:48:17.887Z,96940.16
2019-04-11T01:49:16.389Z,96931.17
2019-04-11T01:50:08.435Z,96941.02
2019-04-11T01:50:59.093Z,96935.31
2019-04-11T01:51:49.784Z,96936.67
2019-04-11T01:52:39.872Z,96936.45
2019-04-11T01:53:30.965Z,96935.09
2019-04-11T01:54:21.668Z,96936.20
2019-04-11T01:55:12.299Z,96927.77
2019-04-11T01:56:03.097Z,96935.14
2019-04-11T01:56:53.741Z,96933.78
2019-04-11T01:57:44.870Z,96933.52
2019-04-11T01:58:35.193Z,96933.52
2019-04-11T01:59:25.240Z,96934.66
2019-04-11T02:00:30.167Z,96934.41
2019-04-11T02:01:41.064Z,96931.44
2019-04-11T02:02:48.122Z,96938.55
2019-04-11T02:03:57.372Z,96935.60
2019-04-11T02:05:01.316Z,96939.44
2019-04-11T02:05:52.141Z,96934.84
2019-04-11T02:06:43.521Z,96935.18
2019-04-11T02:07:34.351Z,96930.03
2019-04-11T02:08:25.055Z,96929.78
2019-04-11T02:09:15.919Z,96934.97
2019-04-11T02:10:06.768Z,96940.20
2019-04-11T02:10:57.472Z,96935.86
2019-04-11T02:11:48.040Z,96928.80
2019-04-11T02:12:39.388Z,96927.19
2019-04-11T02:13:30.023Z,96927.73
2019-04-11T02:14:21.060Z,96928.33
2019-04-11T02:15:10.337Z,96931.60
2019-04-11T02:16:01.467Z,96927.27
2019-04-11T02:16:53.666Z,96937.61
2019-04-11T02:17:43.747Z,96923.17
2019-04-11T02:18:35.254Z,96934.63
2019-04-11T02:19:25.917Z,96932.71
2019-04-11T02:20:16.921Z,96933.02
2019-04-11T02:21:07.554Z,96933.02
2019-04-11T02:22:11.926Z,96928.67
2019-04-11T02:23:23.288Z,96937.66
2019-04-11T02:24:24.102Z,96936.30
2019-04-11T02:25:34.100Z,96934.70
2019-04-11T02:26:32.112Z,96935.81
2019-04-11T02:27:27.419Z,96945.65
2019-04-11T02:28:20.219Z,96942.12
2019-04-11T02:29:09.571Z,96938.36
2019-04-11T02:30:01.154Z,96947.09
2019-04-11T02:30:54.172Z,96937.56
2019-04-11T02:31:44.402Z,96947.39
2019-04-11T02:32:34.438Z,96948.75
2019-04-11T02:33:26.157Z,96951.48
2019-04-11T02:34:16.020Z,96947.14
2019-04-11T02:35:07.824Z,96943.05
2019-04-11T02:35:58.109Z,96954.76
2019-04-11T02:36:51.296Z,96953.47
2019-04-11T02:37:42.050Z,96953.47
2019-04-11T02:38:32.432Z,96949.13
2019-04-11T02:39:22.930Z,96952.96
2019-04-11T02:40:13.522Z,96954.58
2019-04-11T02:41:03.518Z,96953.77
2019-04-11T02:41:54.882Z,96954.88
2019-04-11T02:42:45.651Z,96954.88
2019-04-11T02:43:36.515Z,96950.80
2019-04-11T02:44:42.411Z,96957.60
2019-04-11T02:45:30.840Z,96953.84
2019-04-11T02:46:17.606Z,96954.88
2019-04-11T02:47:05.247Z,96955.20
2019-04-11T02:47:50.637Z,96957.94
2019-04-11T02:48:40.655Z,96953.04
2019-04-11T02:49:31.166Z,96951.68
2019-04-11T02:50:21.947Z,96958.16
2019-04-11T02:51:12.474Z,96953.84
2019-04-11T02:52:02.680Z,96954.63
2019-04-11T02:52:52.978Z,96960.87
2019-04-11T02:53:45.169Z,96959.52
2019-04-11T02:54:34.289Z,96960.33
2019-04-11T02:55:25.228Z,96949.17
2019-04-11T02:56:14.918Z,96963.05
2019-04-11T02:57:05.802Z,96960.87
2019-04-11T02:57:57.640Z,96960.07
2019-04-11T02:58:48.258Z,96960.87
2019-04-11T02:59:38.949Z,96959.30
2019-04-11T03:00:30.855Z,96956.50
2019-04-11T03:01:20.039Z,96958.97
2019-04-11T03:02:11.079Z,96967.69
2019-04-11T03:03:01.565Z,96966.33
2019-04-11T03:03:51.963Z,96962.02
2019-04-11T03:04:42.424Z,96961.44
2019-04-11T03:05:34.436Z,96960.07
2019-04-11T03:06:23.499Z,96969.86
2019-04-11T03:07:14.577Z,96969.38
2019-04-11T03:08:09.228Z,96962.58
2019-04-11T03:08:57.352Z,96963.12
2019-04-11T03:09:48.824Z,96960.66
2019-04-11T03:10:38.776Z,96967.47
2019-04-11T03:11:30.363Z,96973.69
2019-04-11T03:12:21.669Z,96973.47
2019-04-11T03:13:12.672Z,96964.74
2019-04-11T03:14:03.932Z,96970.74
2019-04-11T03:15:10.837Z,96975.94
2019-04-11T03:16:02.119Z,96972.66
2019-04-11T03:16:46.209Z,96971.85
2019-04-11T03:17:31.584Z,96979.72
2019-04-11T03:18:35.567Z,96976.74
2019-04-11T03:19:24.063Z,96976.74
2019-04-11T03:20:13.066Z,96979.47
2019-04-11T03:20:56.700Z,96972.95
2019-04-11T03:21:43.880Z,96977.59
2019-04-11T03:22:32.180Z,96980.32
2019-04-11T03:23:23.538Z,96975.17
2019-04-11T03:24:13.282Z,96983.59
2019-04-11T03:25:06.010Z,96973.03
2019-04-11T03:25:56.706Z,96980.39
2019-04-11T03:26:46.367Z,96978.48
2019-04-11T03:27:37.814Z,96980.39
2019-04-11T03:28:31.285Z,96980.39
2019-04-11T03:29:19.878Z,96981.76
2019-04-11T03:30:15.016Z,96976.05
2019-04-11T03:31:32.672Z,96977.13
2019-04-11T03:32:34.622Z,96978.48
2019-04-11T03:35:09.150Z,96979.59
2019-04-11T03:36:08.730Z,96977.13
2019-04-11T03:37:01.174Z,96985.51
2019-04-11T03:38:05.873Z,96984.48
2019-04-11T03:39:01.747Z,96984.16
2019-04-11T03:39:52.698Z,96985.51
2019-04-11T03:40:38.673Z,96978.48
2019-04-11T03:41:23.544Z,96988.01
2019-04-11T03:42:18.657Z,96986.88
2019-04-11T03:43:04.226Z,96988.01
2019-04-11T03:43:50.866Z,96982.31
2019-04-11T03:44:38.364Z,96993.45
2019-04-11T03:45:46.726Z,96986.66
2019-04-11T03:46:30.835Z,96986.66
2019-04-11T03:47:16.674Z,96990.41
2019-04-11T03:48:10.963Z,96988.23
2019-04-11T03:48:55.691Z,96989.59
2019-04-11T03:49:44.741Z,96981.42
2019-04-11T03:50:30.610Z,96983.59
2019-04-11T03:51:18.732Z,96984.95
2019-04-11T03:52:10.586Z,96994.19
2019-04-11T03:53:01.411Z,96985.77
2019-04-11T03:53:51.678Z,96990.11
2019-04-11T03:54:49.449Z,96988.19
2019-04-11T03:55:39.052Z,96977.84
2019-04-11T03:56:30.427Z,96995.00
2019-04-11T03:57:21.602Z,96991.47
2019-04-11T03:58:13.108Z,96988.74
2019-04-11T03:59:04.074Z,96984.91
2019-04-11T03:59:54.520Z,96991.17
2019-04-11T04:00:46.513Z,96992.27
2019-04-11T04:01:37.982Z,96994.70
2019-04-11T04:02:26.628Z,96997.17
2019-04-11T04:03:18.235Z,96994.70
2019-04-11T04:04:08.942Z,96996.62
2019-04-11T04:04:59.220Z,97002.88
2019-04-11T04:05:48.807Z,96996.62
2019-04-11T04:06:39.499Z,96997.42
2019-04-11T04:07:32.005Z,96997.42
2019-04-11T04:08:22.444Z,96995.25
2019-04-11T04:09:13.072Z,97004.23
2019-04-11T04:10:03.558Z,97002.28
2019-04-11T04:11:06.074Z,97007.18
2019-04-11T04:11:56.858Z,97002.28
2019-04-11T04:12:47.521Z,97001.73
2019-04-11T04:13:38.984Z,97002.28
2019-04-11T04:14:34.382Z,97007.18
2019-04-11T04:15:53.806Z,97001.73
2019-04-11T04:16:46.973Z,97005.02
2019-04-11T04:18:00.106Z,97009.68
2019-04-11T04:19:01.564Z,97012.41
2019-04-11T04:20:10.930Z,97005.34
2019-04-11T04:21:22.665Z,97009.17
2019-04-11T04:22:22.153Z,97007.55
2019-04-11T04:23:19.100Z,97014.36
2019-04-11T04:24:34.210Z,97015.47
2019-04-11T04:25:21.373Z,97019.55
2019-04-11T04:26:12.329Z,97012.27
2019-04-11T04:27:04.279Z,97016.61
2019-04-11T04:27:56.899Z,97021.80
2019-04-11T04:28:47.659Z,97019.08
2019-04-11T04:29:41.135Z,97021.54
2019-04-11T04:30:30.002Z,97021.80
2019-04-11T04:31:22.245Z,97023.16
2019-04-11T04:32:12.068Z,97019.08
2019-04-11T04:33:02.915Z,97029.41
2019-04-11T04:33:53.404Z,97024.77
2019-04-11T04:34:44.315Z,97028.05
2019-04-11T04:35:36.357Z,97027.50
2019-04-11T04:36:27.285Z,97031.58
2019-04-11T04:37:16.249Z,97030.22
2019-04-11T04:38:07.540Z,97026.14
2019-04-11T04:38:59.281Z,97035.34
2019-04-11T04:39:51.826Z,97036.70
2019-04-11T04:40:57.047Z,97034.79
2019-04-11T04:41:39.201Z,97037.77
2019-04-11T04:42:31.506Z,97033.42
2019-04-11T04:43:14.640Z,97040.48
2019-04-11T04:44:06.464Z,97040.48
2019-04-11T04:44:58.285Z,97033.42
2019-04-11T04:46:04.937Z,97033.68
2019-04-11T04:46:54.789Z,97035.05
2019-04-11T04:47:39.752Z,97038.83
2019-04-11T04:48:24.319Z,97036.66
2019-04-11T04:49:13.678Z,97035.55
2019-04-11T04:50:06.165Z,97033.38
2019-04-11T04:50:57.628Z,97043.14
2019-04-11T04:51:47.792Z,97037.95
2019-04-11T04:52:38.180Z,97038.27
2019-04-11T04:53:28.630Z,97046.12
2019-04-11T04:54:22.031Z,97043.95
2019-04-11T04:55:12.435Z,97042.03
2019-04-11T04:56:02.657Z,97046.92
2019-04-11T04:56:54.497Z,97045.81
2019-04-11T04:57:44.951Z,97053.44
2019-04-11T04:58:35.358Z,97046.08
2019-04-11T04:59:25.385Z,97046.88
2019-04-11T05:00:18.668Z,97041.66
2019-04-11T05:01:07.154Z,97042.47
2019-04-11T05:01:57.234Z,97049.28
2019-04-11T05:02:48.011Z,97049.28
2019-04-11T05:03:40.422Z,97041.11
2019-04-11T05:04:29.831Z,97048.72
2019-04-11T05:05:21.984Z,97041.11
2019-04-11T05:06:12.018Z,97046.00
2019-04-11T05:07:03.268Z,97050.89
2019-04-11T05:07:54.221Z,97050.34
2019-04-11T05:08:47.163Z,97052.44
2019-04-11T05:09:38.538Z,97049.72
2019-04-11T05:10:30.608Z,97053.55
2019-04-11T05:11:23.151Z,97054.35
2019-04-11T05:12:11.983Z,97053.25
2019-04-11T05:13:03.548Z,97052.70
2019-04-11T05:13:54.485Z,97048.05
2019-04-11T05:14:47.762Z,97049.42
2019-04-11T05:15:36.895Z,97051.59
2019-04-11T05:16:27.830Z,97058.66
2019-04-11T05:17:19.221Z,97055.59
2019-04-11T05:18:10.897Z,97054.23
2019-04-11T05:18:59.485Z,97052.32
2019-04-11T05:19:54.410Z,97057.22
2019-04-11T05:20:46.343Z,97058.58
2019-04-11T05:21:38.891Z,97054.75
2019-04-11T05:22:29.352Z,97053.39
2019-04-11T05:23:21.444Z,97064.53
2019-04-11T05:24:12.572Z,97057.95
2019-04-11T05:25:03.847Z,97062.29
2019-04-11T05:25:53.703Z,97059.56
2019-04-11T05:26:44.487Z,97054.67
2019-04-11T05:27:35.825Z,97063.91
2019-04-11T05:28:27.614Z,97054.93
2019-04-11T05:29:17.423Z,97065.53
2019-04-11T05:30:08.387Z,97061.19
2019-04-11T05:30:58.874Z,97069.06
2019-04-11T05:31:51.161Z,97062.80
2019-04-11T05:32:41.654Z,97067.92
2019-04-11T05:33:32.692Z,97063.28
2019-04-11T05:34:23.844Z,97063.28
2019-04-11T05:35:14.641Z,97062.73
2019-04-11T05:36:06.018Z,97063.79
2019-04-11T05:36:57.626Z,97069.50
2019-04-11T05:37:48.891Z,97066.44
2019-04-11T05:38:40.083Z,97064.52
2019-04-11T05:39:31.720Z,97062.61
2019-04-11T05:40:22.291Z,97061.17
2019-04-11T05:41:13.900Z,97062.78
2019-04-11T05:42:05.103Z,97061.13
2019-04-11T05:42:55.707Z,97065.47
2019-04-11T05:43:47.329Z,97066.75
2019-04-11T05:44:38.296Z,97069.98
2019-04-11T05:45:28.237Z,97059.31
2019-04-11T05:46:31.114Z,97068.84
2019-04-11T05:47:14.538Z,97066.37
2019-04-11T05:48:01.510Z,97073.14
2019-04-11T05:49:07.184Z,97065.19
2019-04-11T05:50:12.916Z,97069.79
2019-04-11T05:51:00.430Z,97072.77
2019-04-11T05:52:04.069Z,97068.94
2019-04-11T05:52:54.815Z,97065.63
2019-04-11T05:53:48.587Z,97077.03
2019-04-11T05:54:43.136Z,97067.75
2019-04-11T05:55:41.525Z,97072.88
2019-04-11T05:56:29.969Z,97068.48
2019-04-11T05:57:23.790Z,97071.16
2019-04-11T05:58:14.294Z,97070.02
2019-04-11T05:59:17.208Z,97076.53
2019-04-11T06:00:09.707Z,97072.14
2019-04-11T06:01:05.407Z,97076.45
2019-04-11T06:02:04.367Z,97080.24
2019-04-11T06:02:57.530Z,97070.95
2019-04-11T06:03:49.278Z,97080.75
2019-04-11T06:04:42.841Z,97071.43
2019-04-11T06:05:40.852Z,97079.86
2019-04-11T06:06:40.171Z,97077.39
2019-04-11T06:07:40.055Z,97072.44
2019-04-11T06:08:30.270Z,97078.70
2019-04-11T06:09:23.039Z,97088.47
2019-04-11T06:10:19.848Z,97073.73
2019-04-11T06:11:16.502Z,97081.35
2019-04-11T06:12:21.684Z,97089.78
2019-04-11T06:13:18.319Z,97083.22
2019-04-11T06:14:39.752Z,97086.17
2019-04-11T06:15:36.292Z,97084.81
2019-04-11T06:16:36.124Z,97079.35
2019-04-11T06:17:18.501Z,97088.90
2019-04-11T06:18:27.000Z,97084.81
2019-04-11T06:19:22.914Z,97087.53
2019-04-11T06:20:45.212Z,97087.87
2019-04-11T06:21:38.059Z,97086.80
2019-04-11T06:22:29.675Z,97090.98
2019-04-11T06:23:54.260Z,97090.47
2019-04-11T06:25:11.242Z,97084.20
2019-04-11T06:26:11.738Z,97094.86
2019-04-11T06:27:14.238Z,97088.38
2019-04-11T06:28:11.800Z,97091.66
2019-04-11T06:29:17.163Z,97094.94
2019-04-11T06:30:18.244Z,97092.77
2019-04-11T06:31:31.898Z,97094.69
2019-04-11T06:32:41.248Z,97093.88
2019-04-11T06:33:37.901Z,97094.43
2019-04-11T06:34:30.500Z,97093.88
2019-04-11T06:35:37.837Z,97093.88
2019-04-11T06:36:48.260Z,97092.52
2019-04-11T06:37:59.619Z,97097.96
2019-04-11T06:38:58.696Z,97091.15
2019-04-11T06:39:59.756Z,97097.41
2019-04-11T06:40:56.363Z,97106.39
2019-04-11T06:42:13.063Z,97100.69
2019-04-11T06:43:21.878Z,97103.42
2019-04-11T06:44:35.356Z,97101.24
2019-04-11T06:45:54.442Z,97095.54
2019-04-11T06:47:08.221Z,97100.77
2019-04-11T06:48:17.806Z,97097.23
2019-04-11T06:49:26.932Z,97099.95
2019-04-11T06:50:46.972Z,97102.35
2019-04-11T06:51:42.842Z,97097.70
2019-04-11T06:52:34.953Z,97098.22
2019-04-11T06:53:32.170Z,97093.83
2019-04-11T06:54:33.221Z,97102.48
2019-04-11T06:55:42.677Z,97100.52
2019-04-11T06:56:39.299Z,97099.08
2019-04-11T06:57:32.017Z,97105.26
2019-04-11T06:58:29.752Z,97098.95
2019-04-11T06:59:36.698Z,97100.79
2019-04-11T07:00:29.246Z,97103.72
2019-04-11T07:01:25.763Z,97097.37
2019-04-11T07:02:19.632Z,97095.16
2019-04-11T07:03:17.942Z,97098.92
2019-04-11T07:04:17.872Z,97101.34
2019-04-11T07:05:09.052Z,97107.05
2019-04-11T07:06:01.439Z,97100.41
2019-04-11T07:06:54.050Z,97106.36
2019-04-11T07:07:49.472Z,97112.05
2019-04-11T07:08:49.049Z,97113.11
2019-04-11T07:10:02.088Z,97114.42
2019-04-11T07:10:56.494Z,97106.23
2019-04-11T07:11:50.796Z,97115.20
2019-04-11T07:12:57.276Z,97109.19
2019-04-11T07:13:58.642Z,97105.09
2019-04-11T07:15:07.523Z,97105.09
2019-04-11T07:15:58.302Z,97107.82
2019-04-11T07:17:09.550Z,97114.89
2019-04-11T07:18:16.794Z,97118.98
2019-04-11T07:19:39.423Z,97117.88
2019-04-11T07:21:02.900Z,97118.98
2019-04-11T07:21:53.205Z,97120.91
2019-04-11T07:23:02.186Z,97121.23
2019-04-11T07:24:11.761Z,97121.80
2019-04-11T07:25:20.266Z,97120.17
2019-04-11T07:26:37.332Z,97124.83
2019-04-11T07:27:28.154Z,97128.11
2019-04-11T07:28:37.454Z,97122.95
2019-04-11T07:30:00.303Z,97117.28
2019-04-11T07:31:10.545Z,97122.48
2019-04-11T07:32:06.958Z,97121.92
2019-04-11T07:33:08.002Z,97121.11
2019-04-11T07:34:17.535Z,97126.02
2019-04-11T07:35:27.701Z,97127.37
2019-04-11T07:36:36.087Z,97126.83
2019-04-11T07:37:38.501Z,97128.19
2019-04-11T07:38:36.510Z,97131.47
2019-04-11T07:39:44.975Z,97133.64
2019-04-11T07:40:54.527Z,97137.95
2019-04-11T07:42:02.289Z,97133.64
2019-04-11T07:43:19.699Z,97135.81
2019-04-11T07:44:10.953Z,97133.87
2019-04-11T07:45:04.211Z,97130.03
2019-04-11T07:46:24.613Z,97137.66
2019-04-11T07:47:26.330Z,97136.30
2019-04-11T07:48:17.444Z,97133.82
2019-04-11T07:49:08.648Z,97136.80
2019-04-11T07:50:00.665Z,97132.70
2019-04-11T07:50:54.145Z,97134.87
2019-04-11T07:51:46.903Z,97139.19
2019-04-11T07:52:46.935Z,97136.72
2019-04-11T07:53:40.009Z,97128.48
2019-04-11T07:54:30.731Z,97135.53
2019-04-11T07:55:23.666Z,97141.23
2019-04-11T07:56:30.106Z,97137.14
2019-04-11T07:57:28.999Z,97140.94
2019-04-11T07:58:25.118Z,97138.45
2019-04-11T07:59:33.885Z,97130.83
2019-04-11T08:00:44.190Z,97144.95
2019-04-11T08:01:54.976Z,97138.94
2019-04-11T08:03:04.214Z,97143.53
2019-04-11T08:04:15.590Z,97140.47
2019-04-11T08:05:24.955Z,97142.34
2019-04-11T08:06:28.861Z,97150.53
2019-04-11T08:07:49.037Z,97140.98
2019-04-11T08:08:56.235Z,97138.80
2019-04-11T08:09:57.161Z,97151.64
2019-04-11T08:10:55.683Z,97144.56
2019-04-11T08:11:52.618Z,97148.66
2019-04-11T08:12:45.578Z,97152.20
2019-04-11T08:13:45.633Z,97148.91
2019-04-11T08:14:59.325Z,97148.10
2019-04-11T08:16:08.442Z,97148.10
2019-04-11T08:17:25.952Z,97157.91
2019-04-11T08:18:14.688Z,97156.54
2019-04-11T08:19:26.913Z,97153.81
2019-04-11T08:20:35.992Z,97156.54
2019-04-11T08:21:46.093Z,97159.02
2019-04-11T08:22:43.252Z,97160.08
2019-04-11T08:23:33.874Z,97164.17
2019-04-11T08:24:30.293Z,97161.75
2019-04-11T08:25:39.864Z,97166.09
2019-04-11T08:26:48.647Z,97164.73
2019-04-11T08:27:54.706Z,97168.56
2019-04-11T08:28:37.251Z,97167.54
2019-04-11T08:29:27.177Z,97161.49
2019-04-11T08:30:19.064Z,97158.77
2019-04-11T08:31:28.769Z,97160.38
2019-04-11T08:32:40.074Z,97162.55
2019-04-11T08:33:31.473Z,97156.28
2019-04-11T08:34:21.926Z,97166.09
2019-04-11T08:35:52.939Z,97160.89
2019-04-11T08:37:00.495Z,97164.98
2019-04-11T08:38:02.826Z,97163.79
2019-04-11T08:38:53.036Z,97168.39
2019-04-11T08:39:47.142Z,97163.70
2019-04-11T08:40:47.083Z,97165.27
2019-04-11T08:42:05.198Z,97167.92
2019-04-11T08:43:07.157Z,97165.37
2019-04-11T08:43:58.103Z,97173.98
2019-04-11T08:44:48.742Z,97174.98
2019-04-11T08:45:42.873Z,97166.71
2019-04-11T08:46:37.286Z,97172.04
2019-04-11T08:47:42.875Z,97166.75
2019-04-11T08:48:23.240Z,97162.55
2019-04-11T08:49:34.868Z,97168.42
2019-04-11T08:50:28.382Z,97165.80
2019-04-11T08:51:19.167Z,97170.48
2019-04-11T08:52:16.003Z,97170.34
2019-04-11T08:53:25.065Z,97166.91
2019-04-11T08:54:35.520Z,97158.31
2019-04-11T08:55:44.648Z,97162.74
2019-04-11T08:56:23.107Z,97159.86
2019-04-11T08:57:13.841Z,97166.30
2019-04-11T08:58:12.554Z,97167.52
2019-04-11T08:59:44.067Z,97170.97
2019-04-11T09:00:58.508Z,97172.83
2019-04-11T09:01:47.224Z,97165.59
2019-04-11T09:02:44.975Z,97170.41
2019-04-11T09:03:57.375Z,97166.25
2019-04-11T09:05:15.746Z,97170.05
2019-04-11T09:06:09.984Z,97171.57
2019-04-11T09:07:01.142Z,97164.58
2019-04-11T09:08:11.363Z,97171.58
2019-04-11T09:09:20.908Z,97171.17
2019-04-11T09:10:29.175Z,97168.59
2019-04-11T09:11:26.547Z,97174.71
2019-04-11T09:12:18.441Z,97170.86
2019-04-11T09:13:21.316Z,97169.95
2019-04-11T09:14:32.492Z,97168.53
2019-04-11T09:15:41.901Z,97162.71
2019-04-11T09:17:04.489Z,97165.45
2019-04-11T09:18:05.733Z,97167.06
2019-04-11T09:18:52.374Z,97174.15
2019-04-11T09:20:07.475Z,97165.84
2019-04-11T09:21:16.046Z,97163.05
2019-04-11T09:22:26.302Z,97174.08
2019-04-11T09:23:21.693Z,97173.33
2019-04-11T09:24:26.269Z,97172.29
2019-04-11T09:25:35.005Z,97173.81
2019-04-11T09:26:44.389Z,97177.25
2019-04-11T09:27:49.162Z,97173.89
2019-04-11T09:28:43.923Z,97170.73
2019-04-11T09:29:35.681Z,97171.20
2019-04-11T09:30:45.231Z,97172.50
2019-04-11T09:31:55.938Z,97177.32
2019-04-11T09:33:06.714Z,97176.09
2019-04-11T09:34:14.610Z,97178.45
2019-04-11T09:35:12.463Z,97179.16
2019-04-11T09:36:22.474Z,97176.25
2019-04-11T09:37:29.420Z,97170.11
2019-04-11T09:38:19.752Z,97171.31
2019-04-11T09:39:32.439Z,97171.14
2019-04-11T09:40:41.884Z,97173.77
2019-04-11T09:42:09.981Z,97178.09
2019-04-11T09:43:31.893Z,97177.18
2019-04-11T09:44:23.058Z,97177.42
2019-04-11T09:45:25.740Z,97175.73
2019-04-11T09:46:34.502Z,97185.53
2019-04-11T09:47:47.685Z,97177.66
2019-04-11T09:48:58.031Z,97176.05
2019-04-11T09:49:55.834Z,97177.66
2019-04-11T09:51:07.854Z,97181.77
2019-04-11T09:52:04.347Z,97178.79
2019-04-11T09:52:54.561Z,97182.90
2019-04-11T09:53:50.817Z,97177.49
2019-04-11T09:54:50.515Z,97173.63
2019-04-11T09:55:59.101Z,97179.36
2019-04-11T09:57:18.548Z,97176.61
2019-04-11T09:58:23.188Z,97178.79
2019-04-11T09:59:20.724Z,97176.86
2019-04-11T10:00:20.574Z,97179.25
2019-04-11T10:01:28.830Z,97177.81
2019-04-11T10:02:48.423Z,97184.55
2019-04-11T10:03:42.946Z,97185.85
2019-04-11T10:04:32.002Z,97179.95
2019-04-11T10:05:26.549Z,97182.83
2019-04-11T10:06:38.819Z,97180.23
2019-04-11T10:07:46.275Z,97181.77
2019-04-11T10:08:43.666Z,97178.61
2019-04-11T10:09:52.439Z,97181.17
2019-04-11T10:11:01.676Z,97182.36
2019-04-11T10:12:09.598Z,97181.44
2019-04-11T10:13:18.735Z,97181.93
2019-04-11T10:14:15.539Z,97180.70
2019-04-11T10:15:07.173Z,97179.22
2019-04-11T10:16:31.998Z,97187.13
2019-04-11T10:17:46.404Z,97181.64
2019-04-11T10:19:01.862Z,97183.25
2019-04-11T10:19:57.057Z,97178.58
2019-04-11T10:20:50.860Z,97182.34
2019-04-11T10:21:43.749Z,97177.66
2019-04-11T10:22:52.373Z,97180.41
2019-04-11T10:24:20.641Z,97178.47
2019-04-11T10:25:28.880Z,97188.39
2019-04-11T10:26:20.310Z,97182.45
2019-04-11T10:27:40.644Z,97187.13
2019-04-11T10:28:49.503Z,97183.01
2019-04-11T10:29:58.867Z,97183.01
2019-04-11T10:31:22.593Z,97173.66
2019-04-11T10:32:14.922Z,97182.13
2019-04-11T10:33:10.823Z,97187.02
2019-04-11T10:34:33.528Z,97180.97
2019-04-11T10:35:41.037Z,97183.71
2019-04-11T10:36:49.726Z,97174.68
2019-04-11T10:37:42.202Z,97184.87
2019-04-11T10:38:32.898Z,97189.30
2019-04-11T10:39:43.698Z,97183.57
2019-04-11T10:40:54.947Z,97182.77
2019-04-11T10:41:52.383Z,97180.37
2019-04-11T10:42:47.561Z,97188.92
2019-04-11T10:43:40.358Z,97183.52
2019-04-11T10:45:00.305Z,97191.52
2019-04-11T10:46:01.397Z,97186.36
2019-04-11T10:47:09.974Z,97191.95
2019-04-11T10:48:03.199Z,97195.57
2019-04-11T10:49:03.416Z,97190.41
2019-04-11T10:50:17.515Z,97187.11
2019-04-11T10:51:15.230Z,97189.60
2019-04-11T10:52:24.531Z,97191.22
2019-04-11T10:53:16.290Z,97189.60
2019-04-11T10:54:07.380Z,97183.00
2019-04-11T10:55:19.757Z,97192.59
2019-04-11T10:56:35.674Z,97192.59
2019-04-11T10:57:44.686Z,97195.57
2019-04-11T10:58:40.693Z,97191.78
2019-04-11T10:59:34.367Z,97191.22
2019-04-11T11:00:35.586Z,97192.59
2019-04-11T11:02:02.846Z,97190.09
2019-04-11T11:03:22.409Z,97191.46
2019-04-11T11:04:32.523Z,97194.77
2019-04-11T11:05:24.315Z,97189.84
2019-04-11T11:06:17.710Z,97196.45
2019-04-11T11:07:14.794Z,97190.59
2019-04-11T11:08:25.860Z,97192.62